FDX5238 LIMC-LFPG
Flight info
| Callsign | FDX5238 |
|---|---|
| Flight time | 1h 3m |
| Altitude | 34000 |
| Route | AOSTA DCT ORSUD DCT MOLUS DCT UNKIR DCT GIVRI DCT TINIL |
| Aircraft | MD11/H-SDE1E2E3FGHIJ2J3J4J5M1RWXY/LB1D1 |
Departure
| Time | 2026-05-07 19:01 |
|---|---|
| Airport | Milan Malpensa International Airport (LIMC) |
Arrival
| Time | 2026-05-07 20:04 |
|---|---|
| Airport | Charles de Gaulle International Airport (LFPG) |
| Time | Latitude | Longitude | Altitude | Speed | Heading |
|---|---|---|---|---|---|
| 2026-05-07 18:25 | 45.60855 | 8.72060 | 744 ft | 0 kts | 259° |
| 2026-05-07 18:47 | 45.60859 | 8.72089 | 741 ft | 4 kts | 258° |
| 2026-05-07 18:47 | 45.60865 | 8.72127 | 740 ft | 4 kts | 258° |
| 2026-05-07 18:48 | 45.60870 | 8.72159 | 741 ft | 4 kts | 245° |
| 2026-05-07 18:48 | 45.60880 | 8.72183 | 740 ft | 4 kts | 200° |
| 2026-05-07 18:48 | 45.60902 | 8.72186 | 740 ft | 4 kts | 167° |
| 2026-05-07 18:48 | 45.60919 | 8.72181 | 742 ft | 0 kts | 169° |
| 2026-05-07 18:52 | 45.60911 | 8.72183 | 740 ft | 3 kts | 169° |
| 2026-05-07 18:52 | 45.60873 | 8.72194 | 741 ft | 8 kts | 169° |
| 2026-05-07 18:52 | 45.60803 | 8.72213 | 743 ft | 12 kts | 169° |
| 2026-05-07 18:53 | 45.60725 | 8.72235 | 743 ft | 11 kts | 168° |
| 2026-05-07 18:53 | 45.60659 | 8.72257 | 743 ft | 8 kts | 157° |
| 2026-05-07 18:53 | 45.60633 | 8.72313 | 742 ft | 7 kts | 98° |
| 2026-05-07 18:53 | 45.60641 | 8.72403 | 742 ft | 12 kts | 83° |
| 2026-05-07 18:54 | 45.60634 | 8.72541 | 744 ft | 15 kts | 96° |
| 2026-05-07 18:54 | 45.60624 | 8.72688 | 745 ft | 15 kts | 96° |
| 2026-05-07 18:54 | 45.60616 | 8.72792 | 745 ft | 16 kts | 96° |
| 2026-05-07 18:54 | 45.60604 | 8.72952 | 743 ft | 15 kts | 96° |
| 2026-05-07 18:55 | 45.60591 | 8.73137 | 742 ft | 13 kts | 91° |
| 2026-05-07 18:55 | 45.60604 | 8.73218 | 742 ft | 13 kts | 65° |
| 2026-05-07 18:55 | 45.60674 | 8.73293 | 742 ft | 12 kts | 22° |
| 2026-05-07 18:55 | 45.60758 | 8.73341 | 741 ft | 13 kts | 21° |
| 2026-05-07 18:56 | 45.60848 | 8.73393 | 742 ft | 14 kts | 22° |
| 2026-05-07 18:56 | 45.60933 | 8.73397 | 744 ft | 11 kts | 351° |
| 2026-05-07 18:56 | 45.61012 | 8.73375 | 744 ft | 12 kts | 349° |
| 2026-05-07 18:56 | 45.61109 | 8.73348 | 743 ft | 16 kts | 349° |
| 2026-05-07 18:57 | 45.61229 | 8.73314 | 744 ft | 19 kts | 349° |
| 2026-05-07 18:57 | 45.61373 | 8.73275 | 744 ft | 23 kts | 349° |
| 2026-05-07 18:57 | 45.61530 | 8.73231 | 742 ft | 16 kts | 349° |
| 2026-05-07 18:57 | 45.61602 | 8.73225 | 743 ft | 6 kts | 21° |
| 2026-05-07 18:58 | 45.61616 | 8.73265 | 741 ft | 7 kts | 79° |
| 2026-05-07 18:58 | 45.61629 | 8.73365 | 744 ft | 11 kts | 80° |
| 2026-05-07 18:58 | 45.61620 | 8.73455 | 744 ft | 8 kts | 117° |
| 2026-05-07 18:58 | 45.61595 | 8.73521 | 742 ft | 8 kts | 112° |
| 2026-05-07 18:59 | 45.61588 | 8.73617 | 745 ft | 12 kts | 85° |
| 2026-05-07 18:59 | 45.61605 | 8.73724 | 741 ft | 6 kts | 61° |
| 2026-05-07 18:59 | 45.61620 | 8.73730 | 743 ft | 2 kts | 360° |
| 2026-05-07 18:59 | 45.61657 | 8.73725 | 741 ft | 7 kts | 349° |
| 2026-05-07 19:00 | 45.61667 | 8.73723 | 741 ft | 0 kts | 349° |
| 2026-05-07 19:00 | 45.61668 | 8.73722 | 741 ft | 2 kts | 349° |
| 2026-05-07 19:00 | 45.61739 | 8.73703 | 743 ft | 19 kts | 349° |
| 2026-05-07 19:00 | 45.62011 | 8.73627 | 742 ft | 74 kts | 349° |
| 2026-05-07 19:01 | 45.62784 | 8.73411 | 742 ft | 150 kts | 349° |
| 2026-05-07 19:01 | 45.63958 | 8.73093 | 959 ft | 186 kts | 349° |
| 2026-05-07 19:01 | 45.65252 | 8.72738 | 1823 ft | 188 kts | 349° |
| 2026-05-07 19:01 | 45.66549 | 8.72523 | 2773 ft | 188 kts | 358° |
| 2026-05-07 19:02 | 45.67865 | 8.72641 | 3685 ft | 190 kts | 7° |
| 2026-05-07 19:02 | 45.69231 | 8.72760 | 4275 ft | 211 kts | 0° |
| 2026-05-07 19:02 | 45.70803 | 8.72632 | 4575 ft | 238 kts | 345° |
| 2026-05-07 19:02 | 45.72279 | 8.71593 | 5459 ft | 240 kts | 320° |
| 2026-05-07 19:03 | 45.73369 | 8.69778 | 6393 ft | 242 kts | 297° |
| 2026-05-07 19:03 | 45.73911 | 8.67535 | 7307 ft | 242 kts | 277° |
| 2026-05-07 19:03 | 45.73830 | 8.65152 | 8180 ft | 244 kts | 252° |
| 2026-05-07 19:03 | 45.72981 | 8.62915 | 8556 ft | 262 kts | 234° |
| 2026-05-07 19:04 | 45.71925 | 8.60821 | 9607 ft | 258 kts | 235° |
| 2026-05-07 19:04 | 45.70892 | 8.58721 | 10511 ft | 257 kts | 236° |
| 2026-05-07 19:04 | 45.69891 | 8.56583 | 11218 ft | 261 kts | 243° |
| 2026-05-07 19:04 | 45.69005 | 8.54206 | 11664 ft | 276 kts | 243° |
| 2026-05-07 19:05 | 45.68083 | 8.51760 | 12408 ft | 284 kts | 243° |
| 2026-05-07 19:05 | 45.67037 | 8.49193 | 12523 ft | 313 kts | 238° |
| 2026-05-07 19:05 | 45.65770 | 8.46490 | 12711 ft | 338 kts | 236° |
| 2026-05-07 19:05 | 45.64397 | 8.43680 | 12952 ft | 360 kts | 236° |
| 2026-05-07 19:06 | 45.63005 | 8.40654 | 13569 ft | 365 kts | 243° |
| 2026-05-07 19:06 | 45.61123 | 8.33860 | 15002 ft | 372 kts | 252° |
| 2026-05-07 19:06 | 45.60338 | 8.30309 | 15610 ft | 377 kts | 253° |
| 2026-05-07 19:07 | 45.59686 | 8.26624 | 16027 ft | 385 kts | 262° |
| 2026-05-07 19:07 | 45.59587 | 8.22861 | 16968 ft | 381 kts | 275° |
| 2026-05-07 19:07 | 45.60148 | 8.19117 | 17385 ft | 389 kts | 286° |
| 2026-05-07 19:07 | 45.60988 | 8.15511 | 18258 ft | 386 kts | 288° |
| 2026-05-07 19:08 | 45.61894 | 8.11888 | 18837 ft | 389 kts | 289° |
| 2026-05-07 19:08 | 45.62808 | 8.08237 | 19408 ft | 391 kts | 288° |
| 2026-05-07 19:08 | 45.63709 | 8.04553 | 19948 ft | 394 kts | 288° |
| 2026-05-07 19:08 | 45.64597 | 8.00831 | 20503 ft | 396 kts | 287° |
| 2026-05-07 19:09 | 45.65474 | 7.97087 | 21048 ft | 399 kts | 287° |
| 2026-05-07 19:09 | 45.66353 | 7.93289 | 21600 ft | 402 kts | 287° |
| 2026-05-07 19:09 | 45.67224 | 7.89480 | 22171 ft | 405 kts | 287° |
| 2026-05-07 19:09 | 45.68098 | 7.85640 | 22753 ft | 408 kts | 287° |
| 2026-05-07 19:10 | 45.68976 | 7.81777 | 23370 ft | 410 kts | 287° |
| 2026-05-07 19:10 | 45.69851 | 7.77924 | 23846 ft | 414 kts | 287° |
| 2026-05-07 19:10 | 45.70746 | 7.73982 | 24382 ft | 416 kts | 286° |
| 2026-05-07 19:10 | 45.71642 | 7.70032 | 24924 ft | 418 kts | 286° |
| 2026-05-07 19:11 | 45.72546 | 7.66046 | 25463 ft | 420 kts | 286° |
| 2026-05-07 19:11 | 45.73439 | 7.62098 | 25972 ft | 422 kts | 286° |
| 2026-05-07 19:11 | 45.74346 | 7.58088 | 26497 ft | 425 kts | 286° |
| 2026-05-07 19:11 | 45.75258 | 7.54041 | 26999 ft | 427 kts | 286° |
| 2026-05-07 19:12 | 45.76173 | 7.49975 | 27491 ft | 430 kts | 285° |
| 2026-05-07 19:12 | 45.77097 | 7.45859 | 27987 ft | 433 kts | 285° |
| 2026-05-07 19:12 | 45.78032 | 7.41749 | 28466 ft | 435 kts | 287° |
| 2026-05-07 19:12 | 45.79165 | 7.37773 | 28958 ft | 441 kts | 294° |
| 2026-05-07 19:13 | 45.80801 | 7.34014 | 29419 ft | 448 kts | 305° |
| 2026-05-07 19:13 | 45.82988 | 7.30767 | 29857 ft | 457 kts | 316° |
| 2026-05-07 19:13 | 45.85529 | 7.27967 | 30215 ft | 463 kts | 321° |
| 2026-05-07 19:13 | 45.88204 | 7.25368 | 30563 ft | 465 kts | 322° |
| 2026-05-07 19:14 | 45.90909 | 7.22813 | 31047 ft | 465 kts | 322° |
| 2026-05-07 19:14 | 45.93602 | 7.20229 | 31527 ft | 464 kts | 322° |
| 2026-05-07 19:14 | 45.96233 | 7.17639 | 31932 ft | 462 kts | 321° |
| 2026-05-07 19:14 | 45.98866 | 7.14989 | 32340 ft | 461 kts | 320° |
| 2026-05-07 19:15 | 46.01484 | 7.12318 | 32745 ft | 461 kts | 320° |
| 2026-05-07 19:15 | 46.04085 | 7.09644 | 33156 ft | 459 kts | 320° |
| 2026-05-07 19:15 | 46.06682 | 7.06967 | 33554 ft | 458 kts | 320° |
| 2026-05-07 19:15 | 46.09271 | 7.04296 | 33888 ft | 458 kts | 320° |
| 2026-05-07 19:16 | 46.14476 | 6.98918 | 33996 ft | 461 kts | 320° |
| 2026-05-07 19:16 | 46.19678 | 6.93539 | 34012 ft | 461 kts | 320° |
| 2026-05-07 19:17 | 46.24849 | 6.88180 | 34014 ft | 460 kts | 320° |
| 2026-05-07 19:17 | 46.30050 | 6.82778 | 34010 ft | 459 kts | 320° |
| 2026-05-07 19:18 | 46.35210 | 6.77404 | 34014 ft | 459 kts | 320° |
| 2026-05-07 19:18 | 46.40399 | 6.71988 | 34009 ft | 459 kts | 320° |
| 2026-05-07 19:19 | 46.45251 | 6.66074 | 34008 ft | 451 kts | 307° |
| 2026-05-07 19:19 | 46.48622 | 6.58559 | 34009 ft | 446 kts | 295° |
| 2026-05-07 19:20 | 46.51503 | 6.50581 | 34016 ft | 446 kts | 295° |
| 2026-05-07 19:20 | 46.54467 | 6.42655 | 34016 ft | 446 kts | 296° |
| 2026-05-07 19:21 | 46.57513 | 6.34787 | 34025 ft | 447 kts | 296° |
| 2026-05-07 19:21 | 46.60584 | 6.26917 | 34034 ft | 446 kts | 296° |
| 2026-05-07 19:22 | 46.63647 | 6.19049 | 34038 ft | 446 kts | 296° |
| 2026-05-07 19:22 | 46.66679 | 6.11233 | 34039 ft | 446 kts | 296° |
| 2026-05-07 19:23 | 46.69721 | 6.03363 | 34037 ft | 446 kts | 296° |
| 2026-05-07 19:23 | 46.72754 | 5.95492 | 34036 ft | 445 kts | 296° |
| 2026-05-07 19:24 | 46.75781 | 5.87617 | 34023 ft | 445 kts | 296° |
| 2026-05-07 19:24 | 46.78853 | 5.79603 | 34031 ft | 445 kts | 296° |
| 2026-05-07 19:25 | 46.82438 | 5.72381 | 34018 ft | 452 kts | 312° |
| 2026-05-07 19:25 | 46.87645 | 5.67093 | 34018 ft | 461 kts | 328° |
| 2026-05-07 19:26 | 46.93369 | 5.62939 | 34025 ft | 462 kts | 329° |
| 2026-05-07 19:26 | 46.99111 | 5.58623 | 34022 ft | 461 kts | 328° |
| 2026-05-07 19:27 | 47.04745 | 5.54143 | 34023 ft | 461 kts | 327° |
| 2026-05-07 19:27 | 47.10354 | 5.49594 | 34021 ft | 460 kts | 327° |
| 2026-05-07 19:28 | 47.15961 | 5.45031 | 34025 ft | 460 kts | 327° |
| 2026-05-07 19:28 | 47.21532 | 5.40493 | 34025 ft | 460 kts | 327° |
| 2026-05-07 19:29 | 47.27142 | 5.35915 | 34032 ft | 460 kts | 327° |
| 2026-05-07 19:29 | 47.32737 | 5.31325 | 34027 ft | 460 kts | 327° |
| 2026-05-07 19:30 | 47.38307 | 5.26746 | 34028 ft | 460 kts | 327° |
| 2026-05-07 19:30 | 47.43886 | 5.22165 | 33826 ft | 453 kts | 327° |
| 2026-05-07 19:31 | 47.46643 | 5.19898 | 33428 ft | 453 kts | 327° |
| 2026-05-07 19:31 | 47.49405 | 5.17623 | 32866 ft | 454 kts | 327° |
| 2026-05-07 19:31 | 47.52163 | 5.15347 | 32284 ft | 454 kts | 327° |
| 2026-05-07 19:31 | 47.54895 | 5.13089 | 31715 ft | 456 kts | 327° |
| 2026-05-07 19:32 | 47.57669 | 5.10785 | 31154 ft | 457 kts | 326° |
| 2026-05-07 19:32 | 47.60321 | 5.08187 | 30566 ft | 456 kts | 320° |
| 2026-05-07 19:32 | 47.62817 | 5.05267 | 29959 ft | 456 kts | 317° |
| 2026-05-07 19:32 | 47.65239 | 5.02199 | 29311 ft | 457 kts | 316° |
| 2026-05-07 19:33 | 47.67632 | 4.99097 | 28675 ft | 455 kts | 316° |
| 2026-05-07 19:33 | 47.70006 | 4.96023 | 28271 ft | 451 kts | 316° |
| 2026-05-07 19:33 | 47.72349 | 4.93013 | 28042 ft | 449 kts | 317° |
| 2026-05-07 19:33 | 47.74713 | 4.89990 | 27974 ft | 448 kts | 317° |
| 2026-05-07 19:34 | 47.77083 | 4.86965 | 27905 ft | 448 kts | 317° |
| 2026-05-07 19:34 | 47.79453 | 4.83945 | 27849 ft | 448 kts | 317° |
| 2026-05-07 19:34 | 47.81820 | 4.80930 | 27787 ft | 447 kts | 317° |
| 2026-05-07 19:34 | 47.84180 | 4.77920 | 27791 ft | 447 kts | 317° |
| 2026-05-07 19:35 | 47.86495 | 4.74962 | 27792 ft | 447 kts | 317° |
| 2026-05-07 19:35 | 47.88860 | 4.71939 | 27795 ft | 447 kts | 317° |
| 2026-05-07 19:35 | 47.91220 | 4.68923 | 27799 ft | 447 kts | 317° |
| 2026-05-07 19:35 | 47.93551 | 4.65940 | 27801 ft | 447 kts | 317° |
| 2026-05-07 19:36 | 47.95917 | 4.62910 | 27796 ft | 447 kts | 317° |
| 2026-05-07 19:36 | 47.98281 | 4.59880 | 27800 ft | 448 kts | 317° |
| 2026-05-07 19:36 | 48.00647 | 4.56844 | 27799 ft | 448 kts | 317° |
| 2026-05-07 19:36 | 48.03005 | 4.53813 | 27800 ft | 448 kts | 317° |
| 2026-05-07 19:37 | 48.05368 | 4.50774 | 27777 ft | 448 kts | 317° |
| 2026-05-07 19:37 | 48.07739 | 4.47718 | 27057 ft | 447 kts | 317° |
| 2026-05-07 19:37 | 48.10083 | 4.44696 | 26411 ft | 441 kts | 317° |
| 2026-05-07 19:37 | 48.12397 | 4.41709 | 25796 ft | 438 kts | 317° |
| 2026-05-07 19:38 | 48.14689 | 4.38746 | 25205 ft | 434 kts | 317° |
| 2026-05-07 19:38 | 48.16942 | 4.35829 | 24612 ft | 430 kts | 317° |
| 2026-05-07 19:38 | 48.19194 | 4.32910 | 24025 ft | 427 kts | 317° |
| 2026-05-07 19:38 | 48.21433 | 4.30004 | 23404 ft | 423 kts | 317° |
| 2026-05-07 19:39 | 48.23651 | 4.27122 | 22766 ft | 419 kts | 317° |
| 2026-05-07 19:39 | 48.25833 | 4.24244 | 22164 ft | 415 kts | 315° |
| 2026-05-07 19:39 | 48.27836 | 4.21130 | 21567 ft | 411 kts | 310° |
| 2026-05-07 19:39 | 48.29071 | 4.18980 | 21162 ft | 408 kts | 308° |
| 2026-05-07 19:40 | 48.31439 | 4.14622 | 20456 ft | 403 kts | 307° |
| 2026-05-07 19:40 | 48.33191 | 4.11341 | 20152 ft | 398 kts | 307° |
| 2026-05-07 19:40 | 48.34899 | 4.08156 | 20013 ft | 388 kts | 307° |
| 2026-05-07 19:40 | 48.36601 | 4.04997 | 19965 ft | 387 kts | 307° |
| 2026-05-07 19:41 | 48.38303 | 4.01848 | 19963 ft | 387 kts | 307° |
| 2026-05-07 19:41 | 48.39431 | 3.99769 | 19961 ft | 387 kts | 307° |
| 2026-05-07 19:41 | 48.41693 | 3.95604 | 19721 ft | 390 kts | 307° |
| 2026-05-07 19:41 | 48.43407 | 3.92451 | 19120 ft | 385 kts | 307° |
| 2026-05-07 19:42 | 48.45100 | 3.89335 | 18534 ft | 382 kts | 307° |
| 2026-05-07 19:42 | 48.46212 | 3.87288 | 18139 ft | 380 kts | 307° |
| 2026-05-07 19:42 | 48.47882 | 3.84209 | 17502 ft | 377 kts | 307° |
| 2026-05-07 19:42 | 48.49534 | 3.81160 | 16921 ft | 374 kts | 307° |
| 2026-05-07 19:43 | 48.51175 | 3.78127 | 16417 ft | 371 kts | 307° |
| 2026-05-07 19:43 | 48.52805 | 3.75111 | 16126 ft | 369 kts | 307° |
| 2026-05-07 19:43 | 48.54351 | 3.72083 | 16001 ft | 368 kts | 304° |
| 2026-05-07 19:43 | 48.55793 | 3.68899 | 15945 ft | 367 kts | 302° |
| 2026-05-07 19:44 | 48.57184 | 3.65669 | 15881 ft | 367 kts | 301° |
| 2026-05-07 19:44 | 48.58564 | 3.62418 | 15594 ft | 367 kts | 301° |
| 2026-05-07 19:44 | 48.59935 | 3.59185 | 15332 ft | 368 kts | 301° |
| 2026-05-07 19:44 | 48.61340 | 3.55881 | 15276 ft | 375 kts | 301° |
| 2026-05-07 19:45 | 48.62754 | 3.52566 | 15216 ft | 376 kts | 301° |
| 2026-05-07 19:45 | 48.64169 | 3.49250 | 15152 ft | 375 kts | 301° |
| 2026-05-07 19:45 | 48.65586 | 3.45927 | 15083 ft | 375 kts | 301° |
| 2026-05-07 19:45 | 48.67002 | 3.42604 | 15054 ft | 375 kts | 301° |
| 2026-05-07 19:46 | 48.68557 | 3.39506 | 15050 ft | 377 kts | 314° |
| 2026-05-07 19:46 | 48.70590 | 3.36986 | 15050 ft | 378 kts | 317° |
| 2026-05-07 19:46 | 48.72290 | 3.33992 | 15049 ft | 374 kts | 300° |
| 2026-05-07 19:46 | 48.73506 | 3.30510 | 15048 ft | 374 kts | 294° |
| 2026-05-07 19:47 | 48.74613 | 3.26947 | 15051 ft | 374 kts | 294° |
| 2026-05-07 19:47 | 48.75774 | 3.23417 | 15047 ft | 374 kts | 296° |
| 2026-05-07 19:47 | 48.77014 | 3.19936 | 14937 ft | 376 kts | 297° |
| 2026-05-07 19:47 | 48.78311 | 3.16516 | 14569 ft | 373 kts | 299° |
| 2026-05-07 19:48 | 48.79629 | 3.13176 | 14212 ft | 372 kts | 300° |
| 2026-05-07 19:48 | 48.80978 | 3.09831 | 13848 ft | 371 kts | 300° |
| 2026-05-07 19:48 | 48.82332 | 3.06507 | 13452 ft | 369 kts | 300° |
| 2026-05-07 19:48 | 48.83692 | 3.03215 | 13131 ft | 366 kts | 302° |
| 2026-05-07 19:49 | 48.85237 | 3.00120 | 13065 ft | 367 kts | 308° |
| 2026-05-07 19:49 | 48.86819 | 2.97353 | 13051 ft | 368 kts | 310° |
| 2026-05-07 19:49 | 48.88149 | 2.95129 | 13051 ft | 368 kts | 311° |
| 2026-05-07 19:49 | 48.89876 | 2.92280 | 13054 ft | 368 kts | 311° |
| 2026-05-07 19:50 | 48.91583 | 2.89359 | 13049 ft | 367 kts | 307° |
| 2026-05-07 19:50 | 48.92942 | 2.86081 | 13051 ft | 365 kts | 292° |
| 2026-05-07 19:50 | 48.93607 | 2.82444 | 13053 ft | 362 kts | 275° |
| 2026-05-07 19:50 | 48.93642 | 2.78615 | 13053 ft | 362 kts | 266° |
| 2026-05-07 19:51 | 48.93424 | 2.74790 | 13049 ft | 362 kts | 263° |
| 2026-05-07 19:51 | 48.93150 | 2.70980 | 13045 ft | 362 kts | 263° |
| 2026-05-07 19:51 | 48.92882 | 2.67172 | 13040 ft | 361 kts | 263° |
| 2026-05-07 19:51 | 48.92637 | 2.63430 | 12636 ft | 350 kts | 264° |
| 2026-05-07 19:52 | 48.92419 | 2.59822 | 12113 ft | 331 kts | 264° |
| 2026-05-07 19:52 | 48.92228 | 2.56480 | 11607 ft | 311 kts | 264° |
| 2026-05-07 19:52 | 48.92050 | 2.53288 | 11105 ft | 295 kts | 265° |
| 2026-05-07 19:52 | 48.91882 | 2.50250 | 10616 ft | 281 kts | 265° |
| 2026-05-07 19:53 | 48.91720 | 2.47313 | 10119 ft | 276 kts | 265° |
| 2026-05-07 19:53 | 48.91556 | 2.44417 | 9611 ft | 273 kts | 264° |
| 2026-05-07 19:53 | 48.91392 | 2.41557 | 9072 ft | 271 kts | 265° |
| 2026-05-07 19:53 | 48.91232 | 2.38745 | 8555 ft | 269 kts | 265° |
| 2026-05-07 19:54 | 48.91070 | 2.35887 | 8042 ft | 273 kts | 265° |
| 2026-05-07 19:54 | 48.90907 | 2.32996 | 7536 ft | 275 kts | 265° |
| 2026-05-07 19:54 | 48.90743 | 2.30085 | 7035 ft | 277 kts | 265° |
| 2026-05-07 19:54 | 48.90576 | 2.27151 | 6545 ft | 279 kts | 265° |
| 2026-05-07 19:55 | 48.90410 | 2.24205 | 6036 ft | 281 kts | 265° |
| 2026-05-07 19:55 | 48.90243 | 2.21264 | 5512 ft | 282 kts | 265° |
| 2026-05-07 19:55 | 48.90073 | 2.18286 | 5096 ft | 280 kts | 265° |
| 2026-05-07 19:55 | 48.89904 | 2.15339 | 4714 ft | 278 kts | 265° |
| 2026-05-07 19:56 | 48.89737 | 2.12430 | 4318 ft | 275 kts | 265° |
| 2026-05-07 19:56 | 48.89574 | 2.09553 | 4040 ft | 269 kts | 265° |
| 2026-05-07 19:56 | 48.89533 | 2.06780 | 3979 ft | 261 kts | 279° |
| 2026-05-07 19:56 | 48.90220 | 2.04269 | 3979 ft | 259 kts | 308° |
| 2026-05-07 19:57 | 48.91585 | 2.02580 | 3983 ft | 258 kts | 336° |
| 2026-05-07 19:57 | 48.93325 | 2.02077 | 3986 ft | 256 kts | 5° |
| 2026-05-07 19:57 | 48.95016 | 2.02855 | 3995 ft | 255 kts | 27° |
| 2026-05-07 19:57 | 48.96569 | 2.04192 | 3990 ft | 256 kts | 31° |
| 2026-05-07 19:58 | 48.98103 | 2.05592 | 3989 ft | 257 kts | 32° |
| 2026-05-07 19:58 | 48.99626 | 2.07007 | 3984 ft | 255 kts | 36° |
| 2026-05-07 19:58 | 49.00768 | 2.09027 | 3987 ft | 254 kts | 66° |
| 2026-05-07 19:58 | 49.01064 | 2.11662 | 3995 ft | 255 kts | 91° |
| 2026-05-07 19:59 | 49.00965 | 2.14333 | 3982 ft | 255 kts | 93° |
| 2026-05-07 19:59 | 49.00871 | 2.17033 | 3989 ft | 255 kts | 92° |
| 2026-05-07 19:59 | 49.00823 | 2.19733 | 3999 ft | 253 kts | 90° |
| 2026-05-07 19:59 | 49.00848 | 2.22427 | 3992 ft | 255 kts | 88° |
| 2026-05-07 20:00 | 49.00965 | 2.25042 | 3928 ft | 235 kts | 85° |
| 2026-05-07 20:00 | 49.01106 | 2.27422 | 3625 ft | 217 kts | 85° |
| 2026-05-07 20:00 | 49.01231 | 2.29546 | 3329 ft | 186 kts | 85° |
| 2026-05-07 20:00 | 49.01334 | 2.31376 | 3064 ft | 164 kts | 85° |
| 2026-05-07 20:01 | 49.01429 | 2.33087 | 2901 ft | 164 kts | 85° |
| 2026-05-07 20:01 | 49.01522 | 2.34795 | 2696 ft | 159 kts | 85° |
| 2026-05-07 20:01 | 49.01612 | 2.36464 | 2485 ft | 158 kts | 85° |
| 2026-05-07 20:01 | 49.01702 | 2.38127 | 2269 ft | 156 kts | 85° |
| 2026-05-07 20:02 | 49.01791 | 2.39780 | 2078 ft | 156 kts | 85° |
| 2026-05-07 20:02 | 49.01879 | 2.41422 | 1859 ft | 155 kts | 85° |
| 2026-05-07 20:02 | 49.01966 | 2.43035 | 1660 ft | 154 kts | 85° |
| 2026-05-07 20:02 | 49.02053 | 2.44659 | 1447 ft | 154 kts | 86° |
| 2026-05-07 20:03 | 49.02139 | 2.46287 | 1231 ft | 154 kts | 85° |
| 2026-05-07 20:03 | 49.02229 | 2.47918 | 1006 ft | 154 kts | 84° |
| 2026-05-07 20:03 | 49.02327 | 2.49547 | 789 ft | 154 kts | 84° |
| 2026-05-07 20:03 | 49.02412 | 2.51174 | 558 ft | 155 kts | 84° |
| 2026-05-07 20:04 | 49.02496 | 2.52846 | 386 ft | 151 kts | 85° |
| 2026-05-07 20:04 | 49.02566 | 2.54197 | 368 ft | 105 kts | 85° |
| 2026-05-07 20:04 | 49.02607 | 2.54995 | 367 ft | 42 kts | 85° |
| 2026-05-07 20:04 | 49.02567 | 2.55316 | 368 ft | 29 kts | 113° |
| 2026-05-07 20:05 | 49.02513 | 2.55482 | 366 ft | 0 kts | 115° |
| 2026-05-07 20:05 | 49.02505 | 2.55508 | 369 ft | 6 kts | 117° |
| 2026-05-07 20:06 | 49.02472 | 2.55579 | 367 ft | 10 kts | 138° |
| 2026-05-07 20:06 | 49.02403 | 2.55613 | 365 ft | 13 kts | 173° |
| 2026-05-07 20:06 | 49.02307 | 2.55627 | 367 ft | 14 kts | 175° |
| 2026-05-07 20:06 | 49.02215 | 2.55637 | 367 ft | 13 kts | 176° |
| 2026-05-07 20:07 | 49.02135 | 2.55647 | 363 ft | 11 kts | 175° |
| 2026-05-07 20:07 | 49.02064 | 2.55656 | 364 ft | 12 kts | 175° |
| 2026-05-07 20:07 | 49.01956 | 2.55670 | 362 ft | 16 kts | 175° |
| 2026-05-07 20:07 | 49.01891 | 2.55579 | 368 ft | 19 kts | 255° |
| 2026-05-07 20:08 | 49.01877 | 2.55368 | 368 ft | 20 kts | 265° |
| 2026-05-07 20:08 | 49.01866 | 2.55170 | 367 ft | 18 kts | 265° |
| 2026-05-07 20:08 | 49.01856 | 2.54989 | 364 ft | 17 kts | 265° |
| 2026-05-07 20:08 | 49.01845 | 2.54780 | 369 ft | 23 kts | 265° |
| 2026-05-07 20:09 | 49.01830 | 2.54514 | 368 ft | 26 kts | 265° |
| 2026-05-07 20:09 | 49.01815 | 2.54244 | 367 ft | 25 kts | 265° |
| 2026-05-07 20:09 | 49.01801 | 2.53993 | 367 ft | 23 kts | 265° |
| 2026-05-07 20:10 | 49.01776 | 2.53545 | 367 ft | 22 kts | 265° |
| 2026-05-07 20:10 | 49.01763 | 2.53302 | 362 ft | 22 kts | 265° |
| 2026-05-07 20:10 | 49.01752 | 2.53075 | 366 ft | 20 kts | 265° |
| 2026-05-07 20:10 | 49.01741 | 2.52860 | 367 ft | 22 kts | 265° |
| 2026-05-07 20:11 | 49.01729 | 2.52637 | 368 ft | 20 kts | 265° |
| 2026-05-07 20:11 | 49.01718 | 2.52428 | 367 ft | 20 kts | 265° |
| 2026-05-07 20:11 | 49.01705 | 2.52191 | 367 ft | 24 kts | 265° |
| 2026-05-07 20:11 | 49.01691 | 2.51935 | 362 ft | 24 kts | 265° |
| 2026-05-07 20:12 | 49.01678 | 2.51693 | 366 ft | 22 kts | 265° |
| 2026-05-07 20:12 | 49.01666 | 2.51471 | 362 ft | 20 kts | 265° |
| 2026-05-07 20:12 | 49.01655 | 2.51266 | 367 ft | 19 kts | 265° |
| 2026-05-07 20:12 | 49.01645 | 2.51079 | 368 ft | 17 kts | 265° |
| 2026-05-07 20:13 | 49.01635 | 2.50906 | 363 ft | 16 kts | 265° |
| 2026-05-07 20:13 | 49.01626 | 2.50739 | 362 ft | 16 kts | 265° |
| 2026-05-07 20:13 | 49.01617 | 2.50572 | 362 ft | 15 kts | 265° |
| 2026-05-07 20:13 | 49.01587 | 2.50448 | 369 ft | 11 kts | 214° |
| 2026-05-07 20:14 | 49.01520 | 2.50434 | 367 ft | 9 kts | 176° |
| 2026-05-07 20:14 | 49.01460 | 2.50435 | 361 ft | 7 kts | 193° |
| 2026-05-07 20:14 | 49.01433 | 2.50401 | 366 ft | 1 kts | 245° |
| 2026-05-07 20:14 | 49.01423 | 2.50309 | 366 ft | 14 kts | 263° |
| 2026-05-07 20:15 | 49.01415 | 2.50166 | 367 ft | 13 kts | 265° |
| 2026-05-07 20:15 | 49.01406 | 2.50056 | 361 ft | 7 kts | 251° |
| 2026-05-07 20:15 | 49.01377 | 2.50033 | 367 ft | 7 kts | 188° |
| 2026-05-07 20:15 | 49.01324 | 2.50037 | 364 ft | 2 kts | 175° |
| 2026-05-07 20:16 | 49.01320 | 2.50037 | 363 ft | 0 kts | 175° |